Impacts METAR Board INFO
IDs:

KSFO - San Francisco Intl, CA, US

Updated at: 0628 UTC 14 Dec 2017
Potential Impact None Slight Moderate High
Time13/18Z 13/19Z 13/20Z 13/21Z 13/22Z 13/23Z 14/00Z 14/01Z 14/02Z 14/03Z 14/04Z 14/05Z 14/06Z
VIS10 10 10 9 10 10 10 10 10 10 10 10 10
CIG-- -- 200 200 200 -- -- -- -- -- -- -- --
CoverFEWFEWBKNBKNBKNSCTSCTSCTFEWCLRFEWFEWFEW
FltCatVFRVFRVFRVFRVFRVFRVFRVFRVFRVFRVFRVFRVFR
WX--------------------------
WDir0700006000290280290300290
WSpd0 3 0 0 0 3 0 0 9 10 10 10 7
WGst-- -- -- -- -- -- -- -- -- -- -- -- --
Raw hourly METARs
KSFO 131756Z 00000KT 10SM FEW200 12/07 A3018 RMK AO2 SLP218 T01170067 10117 20056 50004
KSFO 131856Z 07003KT 10SM FEW200 12/07 A3016 RMK AO2 SLP214 T01170067
KSFO 131956Z 00000KT 10SM BKN200 12/07 A3013 RMK AO2 SLP201 T01220072
KSFO 132056Z 00000KT 9SM BKN200 13/08 A3010 RMK AO2 SLP194 T01330078 58024
KSFO 132156Z 00000KT 10SM BKN200 15/07 A3008 RMK AO2 SLP186 T01500067
KSFO 132256Z 06003KT 10SM SCT200 14/09 A3007 RMK AO2 SLP182 T01440089
KSFO 132356Z 00000KT 10SM SCT200 14/07 A3007 RMK AO2 SLP182 T01440067 10161 20111 56012
KSFO 140056Z 00000KT 10SM SCT200 14/07 A3006 RMK AO2 SLP179 T01390072
KSFO 140156Z 29009KT 10SM FEW200 13/03 A3007 RMK AO2 SLP182 T01280028
KSFO 140256Z 28010KT 10SM CLR 12/07 A3007 RMK AO2 SLP181 T01220072 56001
KSFO 140356Z 29010KT 10SM FEW200 12/09 A3007 RMK AO2 SLP183 T01170089
KSFO 140456Z 30010KT 10SM FEW200 12/09 A3007 RMK AO2 SLP183 T01170094
KSFO 140556Z 29007KT 10SM FEW200 11/09 A3007 RMK AO2 SLP183 T01110094 10144 20111 51003